sensor_id;sensor_type;location;lat;lon;timestamp;pressure;altitude;pressure_sealevel;temperature;humidity
19208;BME280;9737;59.466;18.036;2023-06-14T00:00:16;97778.59;;;9.53;nan
19208;BME280;9737;59.466;18.036;2023-06-14T00:02:44;97748.28;;;9.47;nan
19208;BME280;9737;59.466;18.036;2023-06-14T00:05:12;97751.91;;;9.46;nan
19208;BME280;9737;59.466;18.036;2023-06-14T00:07:41;97755.22;;;9.48;nan
19208;BME280;9737;59.466;18.036;2023-06-14T00:10:11;97751.75;;;9.48;nan
19208;BME280;9737;59.466;18.036;2023-06-14T00:12:39;97759.72;;;9.48;nan
19208;BME280;9737;59.466;18.036;2023-06-14T00:15:09;97750.28;;;9.45;nan
19208;BME280;9737;59.466;18.036;2023-06-14T00:17:37;97749.44;;;9.45;nan
19208;BME280;9737;59.466;18.036;2023-06-14T00:20:06;97744.97;;;9.45;nan
19208;BME280;9737;59.466;18.036;2023-06-14T00:22:36;97758.88;;;9.47;nan
19208;BME280;9737;59.466;18.036;2023-06-14T00:25:06;97784.72;;;9.53;nan
19208;BME280;9737;59.466;18.036;2023-06-14T00:27:49;97797.50;;;9.58;nan
19208;BME280;9737;59.466;18.036;2023-06-14T00:30:19;97824.19;;;9.65;nan
19208;BME280;9737;59.466;18.036;2023-06-14T00:32:47;97838.75;;;9.69;nan
19208;BME280;9737;59.466;18.036;2023-06-14T00:35:15;97865.63;;;9.74;nan
19208;BME280;9737;59.466;18.036;2023-06-14T00:37:43;97891.13;;;9.83;nan
19208;BME280;9737;59.466;18.036;2023-06-14T00:40:11;97917.03;;;9.89;nan
19208;BME280;9737;59.466;18.036;2023-06-14T00:42:40;97978.72;;;10.07;nan
19208;BME280;9737;59.466;18.036;2023-06-14T00:45:09;98009.59;;;10.16;nan
19208;BME280;9737;59.466;18.036;2023-06-14T00:47:41;98049.09;;;10.28;nan
19208;BME280;9737;59.466;18.036;2023-06-14T00:50:10;98070.66;;;10.33;nan
19208;BME280;9737;59.466;18.036;2023-06-14T00:52:38;98080.28;;;10.34;nan
19208;BME280;9737;59.466;18.036;2023-06-14T00:55:07;98066.53;;;10.30;nan
19208;BME280;9737;59.466;18.036;2023-06-14T00:57:35;98037.50;;;10.20;nan
19208;BME280;9737;59.466;18.036;2023-06-14T01:00:05;98013.22;;;10.15;nan
19208;BME280;9737;59.466;18.036;2023-06-14T01:02:36;97981.69;;;10.04;nan
19208;BME280;9737;59.466;18.036;2023-06-14T01:05:06;97975.72;;;10.02;nan
19208;BME280;9737;59.466;18.036;2023-06-14T01:07:49;97939.59;;;9.93;nan
19208;BME280;9737;59.466;18.036;2023-06-14T01:10:28;97907.91;;;9.83;nan
19208;BME280;9737;59.466;18.036;2023-06-14T01:13:07;97895.97;;;9.79;nan
19208;BME280;9737;59.466;18.036;2023-06-14T01:15:38;97882.84;;;9.78;nan
19208;BME280;9737;59.466;18.036;2023-06-14T01:18:06;97884.84;;;9.76;nan
19208;BME280;9737;59.466;18.036;2023-06-14T01:20:36;97867.78;;;9.70;nan
19208;BME280;9737;59.466;18.036;2023-06-14T01:23:06;97854.03;;;9.67;nan
19208;BME280;9737;59.466;18.036;2023-06-14T01:25:34;97835.16;;;9.61;nan
19208;BME280;9737;59.466;18.036;2023-06-14T01:28:05;97808.94;;;9.50;nan
19208;BME280;9737;59.466;18.036;2023-06-14T01:30:38;97825.22;;;9.55;nan
19208;BME280;9737;59.466;18.036;2023-06-14T01:33:12;97824.03;;;9.58;nan
19208;BME280;9737;59.466;18.036;2023-06-14T01:35:43;97844.75;;;9.62;nan
19208;BME280;9737;59.466;18.036;2023-06-14T01:38:13;97869.78;;;9.68;nan
19208;BME280;9737;59.466;18.036;2023-06-14T01:40:42;97888.50;;;9.75;nan
19208;BME280;9737;59.466;18.036;2023-06-14T01:43:13;97904.91;;;9.78;nan
19208;BME280;9737;59.466;18.036;2023-06-14T01:45:42;97918.53;;;9.83;nan
19208;BME280;9737;59.466;18.036;2023-06-14T01:48:11;97933.28;;;9.86;nan
19208;BME280;9737;59.466;18.036;2023-06-14T01:50:39;97933.28;;;9.86;nan
19208;BME280;9737;59.466;18.036;2023-06-14T01:53:08;97942.91;;;9.87;nan
19208;BME280;9737;59.466;18.036;2023-06-14T01:55:38;97947.22;;;9.88;nan
19208;BME280;9737;59.466;18.036;2023-06-14T01:58:10;97967.78;;;9.94;nan
19208;BME280;9737;59.466;18.036;2023-06-14T02:00:38;97992.00;;;9.99;nan
19208;BME280;9737;59.466;18.036;2023-06-14T02:03:07;98011.56;;;10.06;nan
19208;BME280;9737;59.466;18.036;2023-06-14T02:05:35;98041.78;;;10.13;nan
19208;BME280;9737;59.466;18.036;2023-06-14T02:08:05;98064.06;;;10.20;nan
19208;BME280;9737;59.466;18.036;2023-06-14T02:10:33;98087.44;;;10.25;nan
19208;BME280;9737;59.466;18.036;2023-06-14T02:13:04;98116.66;;;10.33;nan
19208;BME280;9737;59.466;18.036;2023-06-14T02:15:32;98143.38;;;10.40;nan
19208;BME280;9737;59.466;18.036;2023-06-14T02:18:02;98166.31;;;10.41;nan
19208;BME280;9737;59.466;18.036;2023-06-14T02:20:30;98145.72;;;10.43;nan
19208;BME280;9737;59.466;18.036;2023-06-14T02:22:59;98146.72;;;10.42;nan
19208;BME280;9737;59.466;18.036;2023-06-14T02:25:27;98148.38;;;10.43;nan
19208;BME280;9737;59.466;18.036;2023-06-14T02:27:55;98161.84;;;10.41;nan
19208;BME280;9737;59.466;18.036;2023-06-14T02:30:25;98195.22;;;10.52;nan
19208;BME280;9737;59.466;18.036;2023-06-14T02:32:53;98193.22;;;10.54;nan
19208;BME280;9737;59.466;18.036;2023-06-14T02:35:21;98203.84;;;10.54;nan
19208;BME280;9737;59.466;18.036;2023-06-14T02:37:51;98213.47;;;10.55;nan
19208;BME280;9737;59.466;18.036;2023-06-14T02:40:19;98203.84;;;10.54;nan
19208;BME280;9737;59.466;18.036;2023-06-14T02:42:47;98200.53;;;10.52;nan
19208;BME280;9737;59.466;18.036;2023-06-14T02:45:15;98185.91;;;10.48;nan
19208;BME280;9737;59.466;18.036;2023-06-14T02:47:45;98163.66;;;10.41;nan
19208;BME280;9737;59.466;18.036;2023-06-14T02:50:13;98145.38;;;10.38;nan
19208;BME280;9737;59.466;18.036;2023-06-14T02:52:43;98165.34;;;10.42;nan
19208;BME280;9737;59.466;18.036;2023-06-14T02:55:12;98182.44;;;10.47;nan
19208;BME280;9737;59.466;18.036;2023-06-14T02:57:40;98214.47;;;10.54;nan
19208;BME280;9737;59.466;18.036;2023-06-14T03:00:09;98246.53;;;10.61;nan
19208;BME280;9737;59.466;18.036;2023-06-14T03:02:40;98280.78;;;10.72;nan
19208;BME280;9737;59.466;18.036;2023-06-14T03:05:11;98349.06;;;10.88;nan
19208;BME280;9737;59.466;18.036;2023-06-14T03:07:39;98402.63;;;11.01;nan
19208;BME280;9737;59.466;18.036;2023-06-14T03:10:08;98458.66;;;11.15;nan
19208;BME280;9737;59.466;18.036;2023-06-14T03:12:36;98489.44;;;11.26;nan
19208;BME280;9737;59.466;18.036;2023-06-14T03:15:05;98527.53;;;11.35;nan
19208;BME280;9737;59.466;18.036;2023-06-14T03:17:33;98567.97;;;11.46;nan
19208;BME280;9737;59.466;18.036;2023-06-14T03:20:02;98614.63;;;11.59;nan
19208;BME280;9737;59.466;18.036;2023-06-14T03:22:33;98667.38;;;11.71;nan
19208;BME280;9737;59.466;18.036;2023-06-14T03:25:01;98717.41;;;11.86;nan
19208;BME280;9737;59.466;18.036;2023-06-14T03:27:31;98763.22;;;11.97;nan
19208;BME280;9737;59.466;18.036;2023-06-14T03:29:58;98830.56;;;12.16;nan
19208;BME280;9737;59.466;18.036;2023-06-14T03:32:27;98903.91;;;12.36;nan
19208;BME280;9737;59.466;18.036;2023-06-14T03:34:55;98975.81;;;12.54;nan
19208;BME280;9737;59.466;18.036;2023-06-14T03:37:23;99046.22;;;12.69;nan
19208;BME280;9737;59.466;18.036;2023-06-14T03:39:52;99085.81;;;12.82;nan
19208;BME280;9737;59.466;18.036;2023-06-14T03:42:20;99119.53;;;12.91;nan
19208;BME280;9737;59.466;18.036;2023-06-14T03:44:48;99177.66;;;13.05;nan
19208;BME280;9737;59.466;18.036;2023-06-14T03:47:16;99247.00;;;13.23;nan
19208;BME280;9737;59.466;18.036;2023-06-14T03:49:44;99327.41;;;13.46;nan
19208;BME280;9737;59.466;18.036;2023-06-14T03:52:13;99407.34;;;13.65;nan
19208;BME280;9737;59.466;18.036;2023-06-14T03:54:43;99469.06;;;13.80;nan
19208;BME280;9737;59.466;18.036;2023-06-14T03:57:15;99504.72;;;13.88;nan
19208;BME280;9737;59.466;18.036;2023-06-14T03:59:43;99507.53;;;13.87;nan
19208;BME280;9737;59.466;18.036;2023-06-14T04:02:11;99490.13;;;13.83;nan
19208;BME280;9737;59.466;18.036;2023-06-14T04:04:42;99504.72;;;13.88;nan
19208;BME280;9737;59.466;18.036;2023-06-14T04:07:10;99510.19;;;13.87;nan
19208;BME280;9737;59.466;18.036;2023-06-14T04:09:39;99484.94;;;13.81;nan
19208;BME280;9737;59.466;18.036;2023-06-14T04:12:08;99445.81;;;13.72;nan
19208;BME280;9737;59.466;18.036;2023-06-14T04:14:40;99431.41;;;13.65;nan
19208;BME280;9737;59.466;18.036;2023-06-14T04:17:08;99409.66;;;13.60;nan
19208;BME280;9737;59.466;18.036;2023-06-14T04:19:36;99444.44;;;13.68;nan
19208;BME280;9737;59.466;18.036;2023-06-14T04:22:04;99462.66;;;13.73;nan
19208;BME280;9737;59.466;18.036;2023-06-14T04:24:45;99532.28;;;13.89;nan
19208;BME280;9737;59.466;18.036;2023-06-14T04:27:20;99614.78;;;14.10;nan
19208;BME280;9737;59.466;18.036;2023-06-14T04:29:53;99673.78;;;14.26;nan
19208;BME280;9737;59.466;18.036;2023-06-14T04:32:23;99751.19;;;14.45;nan
19208;BME280;9737;59.466;18.036;2023-06-14T04:34:54;99826.63;;;14.67;nan
19208;BME280;9737;59.466;18.036;2023-06-14T04:37:22;99891.88;;;14.83;nan
19208;BME280;9737;59.466;18.036;2023-06-14T04:39:50;99953.44;;;15.01;nan
19208;BME280;9737;59.466;18.036;2023-06-14T04:42:18;100014.53;;;15.15;nan
19208;BME280;9737;59.466;18.036;2023-06-14T04:44:47;100073.91;;;15.29;nan
19208;BME280;9737;59.466;18.036;2023-06-14T04:47:17;100153.34;;;15.47;nan
19208;BME280;9737;59.466;18.036;2023-06-14T04:49:45;100229.16;;;15.67;nan
19208;BME280;9737;59.466;18.036;2023-06-14T04:52:13;100315.53;;;15.89;nan
19208;BME280;9737;59.466;18.036;2023-06-14T04:54:41;100415.06;;;16.13;nan
19208;BME280;9737;59.466;18.036;2023-06-14T04:57:10;100490.81;;;16.34;nan
19208;BME280;9737;59.466;18.036;2023-06-14T04:59:40;100583.56;;;16.56;nan
19208;BME280;9737;59.466;18.036;2023-06-14T05:02:08;100671.84;;;16.79;nan
19208;BME280;9737;59.466;18.036;2023-06-14T05:04:38;100771.56;;;17.03;nan
19208;BME280;9737;59.466;18.036;2023-06-14T05:07:07;100858.06;;;17.26;nan
19208;BME280;9737;59.466;18.036;2023-06-14T05:09:36;100944.63;;;17.49;nan
19208;BME280;9737;59.466;18.036;2023-06-14T05:12:05;101032.38;;;17.69;nan
19208;BME280;9737;59.466;18.036;2023-06-14T05:14:34;101096.63;;;17.82;nan
19208;BME280;9737;59.466;18.036;2023-06-14T05:17:02;101178.06;;;18.03;nan
19208;BME280;9737;59.466;18.036;2023-06-14T05:19:30;101238.81;;;18.15;nan
19208;BME280;9737;59.466;18.036;2023-06-14T05:22:00;101306.28;;;18.33;nan
19208;BME280;9737;59.466;18.036;2023-06-14T05:24:29;101365.81;;;18.49;nan
19208;BME280;9737;59.466;18.036;2023-06-14T05:26:58;101410.63;;;18.60;nan
19208;BME280;9737;59.466;18.036;2023-06-14T05:29:26;101465.09;;;18.73;nan
19208;BME280;9737;59.466;18.036;2023-06-14T05:31:56;101514.22;;;18.86;nan
19208;BME280;9737;59.466;18.036;2023-06-14T05:34:24;101579.47;;;19.00;nan
19208;BME280;9737;59.466;18.036;2023-06-14T05:36:52;101603.03;;;19.07;nan
19208;BME280;9737;59.466;18.036;2023-06-14T05:39:21;101643.66;;;19.15;nan
19208;BME280;9737;59.466;18.036;2023-06-14T05:41:50;101690.50;;;19.24;nan
19208;BME280;9737;59.466;18.036;2023-06-14T05:44:18;101689.66;;;19.24;nan
19208;BME280;9737;59.466;18.036;2023-06-14T05:46:46;101738.78;;;19.37;nan
19208;BME280;9737;59.466;18.036;2023-06-14T05:49:14;101797.06;;;19.49;nan
19208;BME280;9737;59.466;18.036;2023-06-14T05:51:42;101842.28;;;19.57;nan
19208;BME280;9737;59.466;18.036;2023-06-14T05:54:10;101907.13;;;19.76;nan
19208;BME280;9737;59.466;18.036;2023-06-14T05:56:40;101938.97;;;19.82;nan
19208;BME280;9737;59.466;18.036;2023-06-14T05:59:07;101972.53;;;19.89;nan
19208;BME280;9737;59.466;18.036;2023-06-14T06:01:35;101928.44;;;19.79;nan
19208;BME280;9737;59.466;18.036;2023-06-14T06:04:04;101949.78;;;19.82;nan
19208;BME280;9737;59.466;18.036;2023-06-14T06:06:32;101954.44;;;19.80;nan
19208;BME280;9737;59.466;18.036;2023-06-14T06:09:02;101958.59;;;19.84;nan
19208;BME280;9737;59.466;18.036;2023-06-14T06:11:30;102074.09;;;20.11;nan
19208;BME280;9737;59.466;18.036;2023-06-14T06:14:11;102117.09;;;20.24;nan
19208;BME280;9737;59.466;18.036;2023-06-14T06:16:39;102119.22;;;20.20;nan
19208;BME280;9737;59.466;18.036;2023-06-14T06:19:07;102096.28;;;20.15;nan
19208;BME280;9737;59.466;18.036;2023-06-14T06:21:35;102075.38;;;20.07;nan
19208;BME280;9737;59.466;18.036;2023-06-14T06:24:04;102121.06;;;20.20;nan
19208;BME280;9737;59.466;18.036;2023-06-14T06:26:33;102202.22;;;20.39;nan
19208;BME280;9737;59.466;18.036;2023-06-14T06:29:00;102307.25;;;20.64;nan
19208;BME280;9737;59.466;18.036;2023-06-14T06:31:30;102345.16;;;20.74;nan
19208;BME280;9737;59.466;18.036;2023-06-14T06:33:58;102423.13;;;20.90;nan
19208;BME280;9737;59.466;18.036;2023-06-14T06:36:26;102511.28;;;21.13;nan
19208;BME280;9737;59.466;18.036;2023-06-14T06:38:53;102606.00;;;21.34;nan
19208;BME280;9737;59.466;18.036;2023-06-14T06:41:21;102664.28;;;21.49;nan
19208;BME280;9737;59.466;18.036;2023-06-14T06:43:49;102743.06;;;21.67;nan
19208;BME280;9737;59.466;18.036;2023-06-14T06:46:17;102827.22;;;21.86;nan
19208;BME280;9737;59.466;18.036;2023-06-14T06:48:47;102992.91;;;22.25;nan
19208;BME280;9737;59.466;18.036;2023-06-14T06:51:15;103162.06;;;22.67;nan
19208;BME280;9737;59.466;18.036;2023-06-14T06:53:43;103342.97;;;23.11;nan
19208;BME280;9737;59.466;18.036;2023-06-14T06:56:15;103532.13;;;23.57;nan
19208;BME280;9737;59.466;18.036;2023-06-14T06:58:43;103580.28;;;23.66;nan
19208;BME280;9737;59.466;18.036;2023-06-14T07:01:11;103596.34;;;23.69;nan
19208;BME280;9737;59.466;18.036;2023-06-14T07:03:40;103648.84;;;23.81;nan
19208;BME280;9737;59.466;18.036;2023-06-14T07:06:09;103658.63;;;23.84;nan
19208;BME280;9737;59.466;18.036;2023-06-14T07:08:37;103695.06;;;23.92;nan
19208;BME280;9737;59.466;18.036;2023-06-14T07:11:06;103759.25;;;24.06;nan
19208;BME280;9737;59.466;18.036;2023-06-14T07:13:34;103829.47;;;24.23;nan
19208;BME280;9737;59.466;18.036;2023-06-14T07:16:04;103813.38;;;24.20;nan
19208;BME280;9737;59.466;18.036;2023-06-14T07:18:32;103862.53;;;24.30;nan
19208;BME280;9737;59.466;18.036;2023-06-14T07:21:00;103903.47;;;24.39;nan
19208;BME280;9737;59.466;18.036;2023-06-14T07:23:29;103904.47;;;24.38;nan
19208;BME280;9737;59.466;18.036;2023-06-14T07:25:57;103918.81;;;24.40;nan
19208;BME280;9737;59.466;18.036;2023-06-14T07:28:25;104007.06;;;24.60;nan
19208;BME280;9737;59.466;18.036;2023-06-14T07:30:53;104091.63;;;24.81;nan
19208;BME280;9737;59.466;18.036;2023-06-14T07:33:21;104198.69;;;25.06;nan
19208;BME280;9737;59.466;18.036;2023-06-14T07:35:49;104305.78;;;25.30;nan
19208;BME280;9737;59.466;18.036;2023-06-14T07:38:19;104329.09;;;25.34;nan
19208;BME280;9737;59.466;18.036;2023-06-14T07:40:48;104373.63;;;25.46;nan
19208;BME280;9737;59.466;18.036;2023-06-14T07:43:16;104416.41;;;25.56;nan
19208;BME280;9737;59.466;18.036;2023-06-14T07:45:45;104499.59;;;25.75;nan
19208;BME280;9737;59.466;18.036;2023-06-14T07:48:28;104572.06;;;25.90;nan
19208;BME280;9737;59.466;18.036;2023-06-14T07:50:56;104667.81;;;26.11;nan
19208;BME280;9737;59.466;18.036;2023-06-14T07:53:25;104724.06;;;26.24;nan
19208;BME280;9737;59.466;18.036;2023-06-14T07:55:54;104769.75;;;26.35;nan
19208;BME280;9737;59.466;18.036;2023-06-14T07:58:22;104854.63;;;26.56;nan
19208;BME280;9737;59.466;18.036;2023-06-14T08:00:50;104937.94;;;26.74;nan
19208;BME280;9737;59.466;18.036;2023-06-14T08:03:18;104981.75;;;26.85;nan
19208;BME280;9737;59.466;18.036;2023-06-14T08:05:46;105080.34;;;27.08;nan
19208;BME280;9737;59.466;18.036;2023-06-14T08:08:14;105118.03;;;27.15;nan
19208;BME280;9737;59.466;18.036;2023-06-14T08:10:44;105226.50;;;27.40;nan
19208;BME280;9737;59.466;18.036;2023-06-14T08:13:13;105310.00;;;27.59;nan
19208;BME280;9737;59.466;18.036;2023-06-14T08:15:41;105395.31;;;27.78;nan
19208;BME280;9737;59.466;18.036;2023-06-14T08:18:09;105488.56;;;28.00;nan
19208;BME280;9737;59.466;18.036;2023-06-14T08:20:37;105623.25;;;28.32;nan
19208;BME280;9737;59.466;18.036;2023-06-14T08:23:06;105838.19;;;28.81;nan
19208;BME280;9737;59.466;18.036;2023-06-14T08:25:34;105984.84;;;29.15;nan
19208;BME280;9737;59.466;18.036;2023-06-14T08:28:02;106082.28;;;29.35;nan
19208;BME280;9737;59.466;18.036;2023-06-14T08:30:32;106082.28;;;29.35;nan
19208;BME280;9737;59.466;18.036;2023-06-14T08:32:59;106114.66;;;29.42;nan
19208;BME280;9737;59.466;18.036;2023-06-14T08:35:40;106169.66;;;29.55;nan
19208;BME280;9737;59.466;18.036;2023-06-14T08:38:08;106221.19;;;29.64;nan
19208;BME280;9737;59.466;18.036;2023-06-14T08:40:37;106249.88;;;29.73;nan
19208;BME280;9737;59.466;18.036;2023-06-14T08:43:05;106234.59;;;29.69;nan
19208;BME280;9737;59.466;18.036;2023-06-14T08:45:35;106200.44;;;29.60;nan
19208;BME280;9737;59.466;18.036;2023-06-14T08:48:04;106305.09;;;29.82;nan
19208;BME280;9737;59.466;18.036;2023-06-14T08:50:34;106449.34;;;30.16;nan
19208;BME280;9737;59.466;18.036;2023-06-14T08:53:07;106554.06;;;30.40;nan
19208;BME280;9737;59.466;18.036;2023-06-14T08:55:37;106554.94;;;30.41;nan
19208;BME280;9737;59.466;18.036;2023-06-14T08:58:09;106517.91;;;30.32;nan
19208;BME280;9737;59.466;18.036;2023-06-14T09:00:42;106638.00;;;30.60;nan
19208;BME280;9737;59.466;18.036;2023-06-14T09:03:11;106687.69;;;30.71;nan
19208;BME280;9737;59.466;18.036;2023-06-14T09:05:41;106895.72;;;31.17;nan
19208;BME280;9737;59.466;18.036;2023-06-14T09:08:10;106962.59;;;31.33;nan
19208;BME280;9737;59.466;18.036;2023-06-14T09:10:39;106857.56;;;31.10;nan
19208;BME280;9737;59.466;18.036;2023-06-14T09:13:07;106759.19;;;30.86;nan
19208;BME280;9737;59.466;18.036;2023-06-14T09:15:35;106548.66;;;30.39;nan
19208;BME280;9737;59.466;18.036;2023-06-14T09:18:05;106613.31;;;30.59;nan
19208;BME280;9737;59.466;18.036;2023-06-14T09:20:33;106842.03;;;31.09;nan
19208;BME280;9737;59.466;18.036;2023-06-14T09:23:02;106832.91;;;31.09;nan
19208;BME280;9737;59.466;18.036;2023-06-14T09:25:32;107021.09;;;31.51;nan
19208;BME280;9737;59.466;18.036;2023-06-14T09:28:06;106937.03;;;31.31;nan
19208;BME280;9737;59.466;18.036;2023-06-14T09:30:36;107081.63;;;31.66;nan
19208;BME280;9737;59.466;18.036;2023-06-14T09:33:06;107537.63;;;32.68;nan
19208;BME280;9737;59.466;18.036;2023-06-14T09:35:34;107920.09;;;33.52;nan
19208;BME280;9737;59.466;18.036;2023-06-14T09:38:02;108153.94;;;34.04;nan
19208;BME280;9737;59.466;18.036;2023-06-14T09:40:34;108398.06;;;34.58;nan
19208;BME280;9737;59.466;18.036;2023-06-14T09:43:04;108491.97;;;34.78;nan
19208;BME280;9737;59.466;18.036;2023-06-14T09:45:33;108848.25;;;35.50;nan
19208;BME280;9737;59.466;18.036;2023-06-14T09:48:02;109007.94;;;35.90;nan
19208;BME280;9737;59.466;18.036;2023-06-14T09:50:35;109401.38;;;36.76;nan
19208;BME280;9737;59.466;18.036;2023-06-14T09:53:06;109848.97;;;37.70;nan
19208;BME280;9737;59.466;18.036;2023-06-14T09:55:36;109894.09;;;37.76;nan
19208;BME280;9737;59.466;18.036;2023-06-14T09:58:06;109775.47;;;37.55;nan
19208;BME280;9737;59.466;18.036;2023-06-14T10:00:36;109051.56;;;36.04;nan
19208;BME280;9737;59.466;18.036;2023-06-14T10:03:11;108473.19;;;34.85;nan
19208;BME280;9737;59.466;18.036;2023-06-14T10:05:43;109057.63;;;36.12;nan
19208;BME280;9737;59.466;18.036;2023-06-14T10:08:14;109481.47;;;37.04;nan
19208;BME280;9737;59.466;18.036;2023-06-14T10:10:44;109461.34;;;36.99;nan
19208;BME280;9737;59.466;18.036;2023-06-14T10:13:13;109527.28;;;37.14;nan
19208;BME280;9737;59.466;18.036;2023-06-14T10:15:48;109342.91;;;36.79;nan
19208;BME280;9737;59.466;18.036;2023-06-14T10:18:30;108498.66;;;34.91;nan
19208;BME280;9737;59.466;18.036;2023-06-14T10:21:06;107986.28;;;33.87;nan
19208;BME280;9737;59.466;18.036;2023-06-14T10:23:40;107490.00;;;32.80;nan
19208;BME280;9737;59.466;18.036;2023-06-14T10:26:18;107103.75;;;31.95;nan
19208;BME280;9737;59.466;18.036;2023-06-14T10:28:58;106973.97;;;31.71;nan
19208;BME280;9737;59.466;18.036;2023-06-14T10:31:42;107571.13;;;33.08;nan
19208;BME280;9737;59.466;18.036;2023-06-14T10:34:11;107966.59;;;33.93;nan
19208;BME280;9737;59.466;18.036;2023-06-14T10:36:42;108067.44;;;34.17;nan
19208;BME280;9737;59.466;18.036;2023-06-14T10:39:14;107562.84;;;33.08;nan
19208;BME280;9737;59.466;18.036;2023-06-14T10:41:42;107199.09;;;32.27;nan
19208;BME280;9737;59.466;18.036;2023-06-14T10:44:33;107571.63;;;33.14;nan
19208;BME280;9737;59.466;18.036;2023-06-14T10:47:01;107689.59;;;33.42;nan
19208;BME280;9737;59.466;18.036;2023-06-14T10:49:40;107605.25;;;33.21;nan
19208;BME280;9737;59.466;18.036;2023-06-14T10:52:14;107356.53;;;32.67;nan
19208;BME280;9737;59.466;18.036;2023-06-14T10:55:10;107032.13;;;31.95;nan
19208;BME280;9737;59.466;18.036;2023-06-14T10:57:40;106761.56;;;31.34;nan
19208;BME280;9737;59.466;18.036;2023-06-14T11:00:13;106612.31;;;31.02;nan
19208;BME280;9737;59.466;18.036;2023-06-14T11:02:56;107023.53;;;31.99;nan
19208;BME280;9737;59.466;18.036;2023-06-14T11:05:30;107125.81;;;32.23;nan
19208;BME280;9737;59.466;18.036;2023-06-14T11:08:23;108188.28;;;34.64;nan
19208;BME280;9737;59.466;18.036;2023-06-14T11:10:59;108803.06;;;35.99;nan
19208;BME280;9737;59.466;18.036;2023-06-14T11:13:27;109262.28;;;36.98;nan
19208;BME280;9737;59.466;18.036;2023-06-14T11:15:57;109335.50;;;37.14;nan
19208;BME280;9737;59.466;18.036;2023-06-14T11:18:28;108728.22;;;35.82;nan
19208;BME280;9737;59.466;18.036;2023-06-14T11:20:56;108073.50;;;34.40;nan
19208;BME280;9737;59.466;18.036;2023-06-14T11:23:25;107857.88;;;33.93;nan
19208;BME280;9737;59.466;18.036;2023-06-14T11:25:53;107445.44;;;33.02;nan
19208;BME280;9737;59.466;18.036;2023-06-14T11:28:24;107216.75;;;32.53;nan
19208;BME280;9737;59.466;18.036;2023-06-14T11:30:59;107922.41;;;34.07;nan
19208;BME280;9737;59.466;18.036;2023-06-14T11:33:27;108165.94;;;34.67;nan
19208;BME280;9737;59.466;18.036;2023-06-14T11:35:55;107820.25;;;33.90;nan
19208;BME280;9737;59.466;18.036;2023-06-14T11:38:26;107704.59;;;33.68;nan
19208;BME280;9737;59.466;18.036;2023-06-14T11:40:58;108092.78;;;34.57;nan
19208;BME280;9737;59.466;18.036;2023-06-14T11:43:26;108730.94;;;35.99;nan
19208;BME280;9737;59.466;18.036;2023-06-14T11:45:55;109246.66;;;37.12;nan
19208;BME280;9737;59.466;18.036;2023-06-14T11:48:37;108666.22;;;35.83;nan
19208;BME280;9737;59.466;18.036;2023-06-14T11:51:05;108586.50;;;35.71;nan
19208;BME280;9737;59.466;18.036;2023-06-14T11:53:35;108871.38;;;36.35;nan
19208;BME280;9737;59.466;18.036;2023-06-14T11:56:03;109459.84;;;37.64;nan
19208;BME280;9737;59.466;18.036;2023-06-14T11:58:32;109736.91;;;38.23;nan
19208;BME280;9737;59.466;18.036;2023-06-14T12:00:59;109839.56;;;38.48;nan
19208;BME280;9737;59.466;18.036;2023-06-14T12:03:28;109996.69;;;38.81;nan
19208;BME280;9737;59.466;18.036;2023-06-14T12:06:07;109688.94;;;38.18;nan
19208;BME280;9737;59.466;18.036;2023-06-14T12:08:37;109230.47;;;37.20;nan
19208;BME280;9737;59.466;18.036;2023-06-14T12:11:11;108490.22;;;35.59;nan
19208;BME280;9737;59.466;18.036;2023-06-14T12:13:40;108555.56;;;35.79;nan
19208;BME280;9737;59.466;18.036;2023-06-14T12:16:08;109126.72;;;37.04;nan
19208;BME280;9737;59.466;18.036;2023-06-14T12:18:38;109264.00;;;37.35;nan
19208;BME280;9737;59.466;18.036;2023-06-14T12:21:07;109513.13;;;37.91;nan
19208;BME280;9737;59.466;18.036;2023-06-14T12:23:46;109556.19;;;38.01;nan
19208;BME280;9737;59.466;18.036;2023-06-14T12:26:16;110060.22;;;39.11;nan
19208;BME280;9737;59.466;18.036;2023-06-14T12:28:44;109864.53;;;38.68;nan
19208;BME280;9737;59.466;18.036;2023-06-14T12:31:14;109990.94;;;39.01;nan
19208;BME280;9737;59.466;18.036;2023-06-14T12:33:42;110076.47;;;39.20;nan
19208;BME280;9737;59.466;18.036;2023-06-14T12:36:12;109675.97;;;38.34;nan
19208;BME280;9737;59.466;18.036;2023-06-14T12:38:41;109789.63;;;38.62;nan
19208;BME280;9737;59.466;18.036;2023-06-14T12:41:11;109482.09;;;37.98;nan
19208;BME280;9737;59.466;18.036;2023-06-14T12:43:41;109361.94;;;37.74;nan
19208;BME280;9737;59.466;18.036;2023-06-14T12:46:09;109537.81;;;38.14;nan
19208;BME280;9737;59.466;18.036;2023-06-14T12:48:37;109603.66;;;38.32;nan
19208;BME280;9737;59.466;18.036;2023-06-14T12:51:05;110024.16;;;39.25;nan
19208;BME280;9737;59.466;18.036;2023-06-14T12:53:33;109696.38;;;38.52;nan
19208;BME280;9737;59.466;18.036;2023-06-14T12:56:01;109303.84;;;37.68;nan
19208;BME280;9737;59.466;18.036;2023-06-14T12:58:30;109404.38;;;37.95;nan
19208;BME280;9737;59.466;18.036;2023-06-14T13:00:58;109222.06;;;37.55;nan
19208;BME280;9737;59.466;18.036;2023-06-14T13:03:26;109246.59;;;37.64;nan
19208;BME280;9737;59.466;18.036;2023-06-14T13:05:54;109518.69;;;38.25;nan
19208;BME280;9737;59.466;18.036;2023-06-14T13:08:22;109699.34;;;38.66;nan
19208;BME280;9737;59.466;18.036;2023-06-14T13:10:51;109833.22;;;38.97;nan
19208;BME280;9737;59.466;18.036;2023-06-14T13:13:19;109968.22;;;39.28;nan
19208;BME280;9737;59.466;18.036;2023-06-14T13:15:48;109991.94;;;39.37;nan
19208;BME280;9737;59.466;18.036;2023-06-14T13:18:17;110305.69;;;40.03;nan
19208;BME280;9737;59.466;18.036;2023-06-14T13:20:46;110269.63;;;39.99;nan
19208;BME280;9737;59.466;18.036;2023-06-14T13:23:15;110260.34;;;39.98;nan
19208;BME280;9737;59.466;18.036;2023-06-14T13:25:44;109624.44;;;38.60;nan
19208;BME280;9737;59.466;18.036;2023-06-14T13:28:12;109573.84;;;38.52;nan